FBSK

Sir Seretse Khama International Airport

Gaborone, Botswana
METAR FBSK 140800Z 04013KT 010V070 CAVOK 31/10 Q1023 NOSIG
Observed Flight Rules
Dec-14 @ 08:00 UTC (42 minutes ago) Visual Flight Rules
Wind Visibility Clouds
40° at 13 knots 10,000+ meters
  • Clear skies
Temperatures Readings
Current 31°C / 88°F
Dewpoint 10°C / 50°F
Humidity 27%
Altimeter 30.21" Hg
Pressure 1023 hPa
Elevation 1005
METAR FBSK 140800Z 04013KT 010V070 CAVOK 31/10 Q1023 NOSIG
Observed Flight Rules
Dec-14 @ 08:00 UTC
(42 minutes ago)
VFR
Wind Visibility
40° at 13 knots 10,000+ meters
Clouds
  • Clear skies
Temperature Dewpoint
31°C / 88°F 10°C / 50°F
Humidity Altimeter Pressure
27% 30.21" Hg 1023 hPa